createdAt,value
2022-08-10T00:00:17.281Z,18.70
2022-08-10T00:03:10.205Z,19.80
2022-08-10T00:05:58.141Z,18.60
2022-08-10T00:08:46.372Z,18.80
2022-08-10T00:11:38.688Z,18.60
2022-08-10T00:14:31.251Z,18.60
2022-08-10T00:17:21.111Z,18.50
2022-08-10T00:20:17.690Z,18.70
2022-08-10T00:23:17.903Z,18.50
2022-08-10T00:26:16.963Z,18.60
2022-08-10T00:29:11.974Z,18.40
2022-08-10T00:32:14.034Z,18.70
2022-08-10T00:35:05.196Z,18.40
2022-08-10T00:37:59.004Z,18.20
2022-08-10T00:40:47.814Z,18.20
2022-08-10T00:43:36.061Z,18.10
2022-08-10T00:46:38.609Z,18.20
2022-08-10T00:49:33.254Z,18.10
2022-08-10T00:52:21.812Z,17.30
2022-08-10T00:55:10.262Z,18.10
2022-08-10T00:57:58.201Z,18.20
2022-08-10T01:01:00.490Z,17.90
2022-08-10T01:04:57.581Z,18.10
2022-08-10T01:07:14.414Z,17.90
2022-08-10T01:10:10.936Z,17.90
2022-08-10T01:13:03.278Z,17.80
2022-08-10T01:15:55.630Z,17.60
2022-08-10T01:18:51.357Z,17.70
2022-08-10T01:21:56.708Z,17.80
2022-08-10T01:25:16.816Z,17.70
2022-08-10T01:28:14.345Z,17.70
2022-08-10T01:31:07.192Z,17.80
2022-08-10T01:34:11.841Z,17.60
2022-08-10T01:37:16.483Z,17.70
2022-08-10T01:40:17.573Z,17.80
2022-08-10T01:46:38.518Z,17.50
2022-08-10T01:54:26.610Z,18.50
2022-08-10T01:57:47.398Z,16.50
2022-08-10T02:08:25.668Z,17.70
2022-08-10T02:16:10.891Z,16.50
2022-08-10T02:19:02.295Z,16.80
2022-08-10T02:27:01.765Z,15.60
2022-08-10T02:34:47.426Z,16.90
2022-08-10T02:45:23.958Z,16.70
2022-08-10T02:54:07.372Z,16.60
2022-08-10T03:05:26.613Z,16.50
2022-08-10T03:08:55.685Z,16.50
2022-08-10T03:21:30.712Z,15.90
2022-08-10T03:28:06.272Z,16.40
2022-08-10T03:56:28.909Z,16.00
2022-08-10T04:00:13.661Z,16.10
2022-08-10T05:30:10.558Z,15.70
2022-08-10T05:33:23.849Z,15.80
2022-08-10T05:41:01.073Z,16.10
2022-08-10T05:44:12.299Z,16.00
2022-08-10T05:47:00.954Z,15.70
2022-08-10T05:50:00.979Z,15.90
2022-08-10T05:52:53.787Z,16.20
2022-08-10T06:00:30.827Z,16.30
2022-08-10T06:02:44.291Z,16.40
2022-08-10T06:05:51.823Z,16.40
2022-08-10T06:08:49.266Z,16.60
2022-08-10T06:12:27.982Z,16.80
2022-08-10T06:15:06.001Z,17.10
2022-08-10T06:18:04.739Z,17.30
2022-08-10T06:25:51.089Z,17.70
2022-08-10T06:28:25.249Z,17.90
2022-08-10T06:31:16.960Z,18.00
2022-08-10T06:34:05.961Z,17.80
2022-08-10T06:36:55.331Z,17.90
2022-08-10T06:39:43.897Z,17.90
2022-08-10T06:46:29.621Z,17.90
2022-08-10T06:49:18.979Z,18.10
2022-08-10T06:52:18.510Z,18.00
2022-08-10T06:55:20.342Z,18.20
2022-08-10T06:58:16.245Z,18.20
2022-08-10T07:01:07.166Z,18.40
2022-08-10T07:03:59.529Z,18.60
2022-08-10T07:06:50.865Z,19.30
2022-08-10T07:09:46.135Z,18.80
2022-08-10T07:12:34.360Z,18.80
2022-08-10T07:15:24.494Z,18.60
2022-08-10T07:18:39.515Z,18.90
2022-08-10T07:21:35.668Z,17.60
2022-08-10T07:24:25.275Z,19.10
2022-08-10T07:27:14.621Z,19.30
2022-08-10T07:30:08.550Z,19.30
2022-08-10T07:32:57.660Z,18.50
2022-08-10T07:35:59.413Z,19.50
2022-08-10T07:38:52.781Z,19.80
2022-08-10T07:41:43.102Z,20.70
2022-08-10T07:44:37.434Z,19.80
2022-08-10T07:47:52.781Z,19.90
2022-08-10T07:50:46.537Z,20.10
2022-08-10T07:53:38.730Z,20.10
2022-08-10T07:56:48.325Z,20.30
2022-08-10T07:59:46.610Z,20.40
2022-08-10T08:02:43.074Z,20.60
2022-08-10T08:05:58.015Z,21.30
2022-08-10T08:08:50.385Z,20.90
2022-08-10T08:11:40.924Z,21.00
2022-08-10T08:14:45.100Z,21.10
2022-08-10T08:17:40.472Z,21.40
2022-08-10T08:20:50.984Z,21.50
2022-08-10T08:27:01.572Z,21.80
2022-08-10T08:29:53.206Z,21.90
2022-08-10T08:32:47.364Z,22.00
2022-08-10T08:35:43.165Z,22.10
2022-08-10T08:38:38.424Z,22.20
2022-08-10T08:41:40.413Z,22.30
2022-08-10T08:44:44.283Z,22.30
2022-08-10T08:48:05.689Z,22.70
2022-08-10T08:52:07.928Z,22.50
2022-08-10T08:54:42.016Z,22.60
2022-08-10T08:57:49.549Z,22.80
2022-08-10T09:00:57.802Z,22.80
2022-08-10T09:04:19.792Z,23.00
2022-08-10T09:07:59.356Z,23.20
2022-08-10T09:10:43.259Z,23.90
2022-08-10T09:13:38.408Z,23.40
2022-08-10T09:16:42.141Z,23.70
2022-08-10T09:19:41.192Z,22.10
2022-08-10T09:22:37.558Z,23.80
2022-08-10T09:25:34.941Z,23.80
2022-08-10T09:29:12.423Z,24.00
2022-08-10T09:36:14.150Z,24.20
2022-08-10T09:36:20.904Z,24.30
2022-08-10T09:38:53.485Z,24.60
2022-08-10T09:41:47.255Z,24.60
2022-08-10T09:44:57.889Z,24.90
2022-08-10T09:48:01.179Z,25.00
2022-08-10T09:51:41.705Z,25.10
2022-08-10T09:54:11.352Z,25.20
2022-08-10T10:00:23.110Z,25.30
2022-08-10T10:03:21.530Z,25.40
2022-08-10T10:06:19.982Z,25.50
2022-08-10T10:09:20.062Z,24.30
2022-08-10T10:12:22.792Z,25.70
2022-08-10T10:15:25.861Z,26.00
2022-08-10T10:18:19.262Z,26.00
2022-08-10T10:21:55.851Z,26.30
2022-08-10T10:24:26.997Z,26.50
2022-08-10T10:27:23.630Z,26.60
2022-08-10T10:30:22.669Z,25.40
2022-08-10T10:33:15.144Z,26.80
2022-08-10T10:36:07.234Z,26.90
2022-08-10T10:38:59.299Z,27.10
2022-08-10T10:42:04.211Z,27.20
2022-08-10T10:44:56.506Z,27.30
2022-08-10T10:47:50.714Z,27.40
2022-08-10T10:50:42.869Z,27.60
2022-08-10T10:53:35.146Z,27.80
2022-08-10T10:56:29.622Z,27.80
2022-08-10T10:59:53.784Z,27.80
2022-08-10T11:02:51.929Z,27.90
2022-08-10T11:05:47.475Z,28.10
2022-08-10T11:08:40.009Z,27.80
2022-08-10T11:12:01.829Z,27.80
2022-08-10T11:15:00.724Z,27.80
2022-08-10T11:17:59.772Z,28.70
2022-08-10T11:20:57.481Z,28.20
2022-08-10T11:24:47.342Z,28.30
2022-08-10T11:26:58.555Z,28.80
2022-08-10T11:29:54.554Z,28.70
2022-08-10T11:32:59.306Z,28.60
2022-08-10T11:35:50.074Z,28.70
2022-08-10T11:39:13.036Z,28.60
2022-08-10T11:42:06.720Z,28.70
2022-08-10T11:45:05.094Z,28.70
2022-08-10T11:47:54.947Z,28.60
2022-08-10T11:50:47.365Z,29.10
2022-08-10T11:53:38.824Z,29.20
2022-08-10T11:56:31.828Z,29.30
2022-08-10T11:59:38.108Z,29.50
2022-08-10T12:02:31.032Z,29.40
2022-08-10T12:05:46.601Z,29.50
2022-08-10T12:10:03.550Z,29.60
2022-08-10T12:11:50.675Z,29.60
2022-08-10T12:14:45.375Z,29.40
2022-08-10T12:17:42.623Z,29.20
2022-08-10T12:20:33.155Z,29.90
2022-08-10T12:23:23.786Z,29.30
2022-08-10T12:26:18.917Z,29.30
2022-08-10T12:29:10.823Z,29.40
2022-08-10T12:32:02.959Z,29.50
2022-08-10T12:35:00.136Z,28.50
2022-08-10T12:37:52.374Z,29.60
2022-08-10T12:40:45.730Z,29.60
2022-08-10T12:44:07.841Z,29.70
2022-08-10T12:47:01.657Z,29.70
2022-08-10T12:50:29.474Z,29.70
2022-08-10T12:53:28.576Z,29.70
2022-08-10T12:56:24.943Z,29.90
2022-08-10T12:59:14.770Z,30.10
2022-08-10T13:02:10.874Z,30.20
2022-08-10T13:05:05.839Z,30.40
2022-08-10T13:08:26.611Z,30.50
2022-08-10T13:12:15.632Z,30.70
2022-08-10T13:14:36.972Z,30.80
2022-08-10T13:17:39.020Z,30.30
2022-08-10T13:20:30.489Z,30.20
2022-08-10T13:23:21.044Z,29.00
2022-08-10T13:26:14.303Z,30.20
2022-08-10T13:29:12.759Z,30.40
2022-08-10T13:32:10.359Z,30.20
2022-08-10T13:35:00.100Z,30.10
2022-08-10T13:37:53.035Z,30.20
2022-08-10T13:40:48.783Z,30.20
2022-08-10T13:43:36.674Z,30.30
2022-08-10T13:46:25.032Z,30.40
2022-08-10T13:49:17.107Z,30.40
2022-08-10T13:52:04.837Z,30.40
2022-08-10T13:54:56.073Z,30.30
2022-08-10T13:57:50.427Z,30.40
2022-08-10T14:00:44.969Z,30.20
2022-08-10T14:03:43.205Z,30.30
2022-08-10T14:06:35.513Z,30.50
2022-08-10T14:09:32.365Z,30.40
2022-08-10T14:12:31.927Z,30.40
2022-08-10T14:15:27.764Z,30.40
2022-08-10T14:18:17.996Z,29.60
2022-08-10T14:21:09.356Z,30.70
2022-08-10T14:23:57.481Z,30.70
2022-08-10T14:26:46.959Z,30.40
2022-08-10T14:29:44.139Z,30.00
2022-08-10T14:32:32.853Z,30.50
2022-08-10T14:36:20.607Z,30.30
2022-08-10T14:38:32.628Z,30.30
2022-08-10T14:42:01.354Z,29.30
2022-08-10T14:44:36.476Z,30.70
2022-08-10T14:47:59.287Z,30.60
2022-08-10T14:50:39.581Z,30.60
2022-08-10T14:53:46.446Z,30.60
2022-08-10T14:56:38.584Z,30.50
2022-08-10T15:00:22.973Z,30.70
2022-08-10T15:02:56.138Z,30.50
2022-08-10T15:05:47.719Z,30.40
2022-08-10T15:08:39.373Z,30.30
2022-08-10T15:12:15.294Z,30.20
2022-08-10T15:14:45.128Z,30.20
2022-08-10T15:17:37.188Z,30.60
2022-08-10T15:20:28.569Z,30.80
2022-08-10T15:23:29.916Z,30.70
2022-08-10T15:26:21.565Z,30.80
2022-08-10T15:29:23.406Z,30.80
2022-08-10T15:32:30.897Z,30.80
2022-08-10T15:35:37.276Z,30.90
2022-08-10T15:38:34.940Z,30.70
2022-08-10T15:41:57.541Z,30.60
2022-08-10T15:44:44.882Z,30.40
2022-08-10T15:47:45.719Z,30.50
2022-08-10T15:50:40.219Z,30.60
2022-08-10T15:53:49.144Z,30.50
2022-08-10T15:56:42.802Z,30.60
2022-08-10T15:59:33.437Z,30.70
2022-08-10T16:02:25.102Z,30.70
2022-08-10T16:05:17.419Z,30.80
2022-08-10T16:08:08.809Z,30.70
2022-08-10T16:11:03.144Z,30.70
2022-08-10T16:14:00.257Z,30.60
2022-08-10T16:16:51.754Z,30.50
2022-08-10T16:19:40.819Z,30.30
2022-08-10T16:22:35.883Z,30.40
2022-08-10T16:25:47.842Z,30.40
2022-08-10T16:28:38.668Z,30.60
2022-08-10T16:31:28.251Z,30.60
2022-08-10T16:34:17.526Z,30.50
2022-08-10T16:37:09.945Z,30.40
2022-08-10T16:40:01.082Z,30.30
2022-08-10T16:42:53.141Z,30.20
2022-08-10T16:45:45.290Z,30.30
2022-08-10T16:48:49.559Z,30.30
2022-08-10T16:51:39.579Z,30.60
2022-08-10T16:54:31.727Z,30.20
2022-08-10T16:57:20.998Z,30.20
2022-08-10T17:00:10.580Z,30.30
2022-08-10T17:03:03.338Z,30.20
2022-08-10T17:06:16.361Z,30.10
2022-08-10T17:09:08.887Z,30.30
2022-08-10T17:11:58.336Z,30.00
2022-08-10T17:14:52.349Z,30.00
2022-08-10T17:18:00.003Z,29.90
2022-08-10T17:20:52.394Z,30.10
2022-08-10T17:23:43.591Z,30.10
2022-08-10T17:26:35.569Z,30.00
2022-08-10T17:29:57.702Z,29.90
2022-08-10T17:32:43.914Z,29.80
2022-08-10T17:35:34.658Z,29.80
2022-08-10T17:38:26.398Z,29.90
2022-08-10T17:41:17.813Z,29.10
2022-08-10T17:44:06.939Z,29.60
2022-08-10T17:46:56.338Z,29.50
2022-08-10T17:49:44.982Z,29.40
2022-08-10T17:52:35.650Z,29.30
2022-08-10T17:55:26.733Z,29.20
2022-08-10T17:58:15.569Z,29.10
2022-08-10T18:01:41.103Z,29.00
2022-08-10T18:04:14.819Z,29.10
2022-08-10T18:07:03.641Z,29.00
2022-08-10T18:09:53.223Z,28.80
2022-08-10T18:12:47.554Z,28.80
2022-08-10T18:15:39.595Z,28.70
2022-08-10T18:18:30.577Z,30.20
2022-08-10T18:21:35.278Z,28.60
2022-08-10T18:24:29.010Z,27.50
2022-08-10T18:28:00.735Z,28.40
2022-08-10T18:30:50.508Z,27.80
2022-08-10T18:33:47.224Z,28.10
2022-08-10T18:36:40.336Z,27.70
2022-08-10T18:39:29.990Z,28.00
2022-08-10T18:42:19.885Z,27.90
2022-08-10T18:45:11.557Z,27.80
2022-08-10T18:48:03.945Z,27.60
2022-08-10T18:50:53.730Z,27.50
2022-08-10T18:53:48.537Z,27.40
2022-08-10T18:56:47.601Z,27.20
2022-08-10T19:00:07.538Z,27.10
2022-08-10T19:03:11.647Z,27.00
2022-08-10T19:06:09.208Z,26.80
2022-08-10T19:09:46.475Z,26.70
2022-08-10T19:12:33.296Z,26.60
2022-08-10T19:15:32.943Z,26.40
2022-08-10T19:18:33.608Z,26.30
2022-08-10T19:21:28.773Z,26.20
2022-08-10T19:24:21.768Z,26.10
2022-08-10T19:27:13.269Z,25.90
2022-08-10T19:30:11.910Z,25.80
2022-08-10T19:33:10.825Z,25.80
2022-08-10T19:36:05.520Z,25.70
2022-08-10T19:39:14.520Z,25.70
2022-08-10T19:42:12.060Z,25.50
2022-08-10T19:45:10.142Z,25.50
2022-08-10T19:48:24.855Z,25.40
2022-08-10T19:51:16.724Z,25.20
2022-08-10T19:54:10.754Z,25.20
2022-08-10T19:57:06.907Z,25.10
2022-08-10T20:00:16.805Z,25.10
2022-08-10T20:03:12.200Z,25.50
2022-08-10T20:06:13.459Z,24.90
2022-08-10T20:09:12.234Z,24.80
2022-08-10T20:12:01.743Z,24.80
2022-08-10T20:14:52.117Z,25.90
2022-08-10T20:17:51.191Z,24.70
2022-08-10T20:20:42.967Z,24.70
2022-08-10T20:23:35.251Z,24.60
2022-08-10T20:26:24.975Z,24.60
2022-08-10T20:29:16.100Z,24.50
2022-08-10T20:32:05.403Z,24.60
2022-08-10T20:34:57.983Z,25.10
2022-08-10T20:38:03.453Z,24.60
2022-08-10T20:41:02.821Z,24.20
2022-08-10T20:44:04.046Z,24.20
2022-08-10T20:46:57.227Z,23.90
2022-08-10T20:49:50.213Z,24.00
2022-08-10T20:52:38.352Z,24.00
2022-08-10T20:55:32.678Z,23.90
2022-08-10T20:58:44.244Z,23.50
2022-08-10T21:02:05.583Z,23.70
2022-08-10T21:04:52.146Z,22.50
2022-08-10T21:08:02.785Z,23.60
2022-08-10T21:10:58.415Z,23.50
2022-08-10T21:14:02.181Z,23.50
2022-08-10T21:17:03.383Z,23.50
2022-08-10T21:20:02.290Z,23.40
2022-08-10T21:22:51.120Z,23.50
2022-08-10T21:25:43.844Z,23.30
2022-08-10T21:28:44.805Z,23.20
2022-08-10T21:32:00.910Z,23.10
2022-08-10T21:34:57.265Z,23.10
2022-08-10T21:37:56.449Z,23.00
2022-08-10T21:41:17.483Z,22.90
2022-08-10T21:44:24.517Z,22.90
2022-08-10T21:48:07.066Z,22.80
2022-08-10T21:51:16.382Z,22.40
2022-08-10T21:54:36.116Z,23.70
2022-08-10T21:57:45.706Z,23.00
2022-08-10T22:01:00.014Z,22.60
2022-08-10T22:04:06.091Z,21.60
2022-08-10T22:07:19.321Z,21.50
2022-08-10T22:10:28.870Z,22.40
2022-08-10T22:13:35.320Z,22.50
2022-08-10T22:16:44.521Z,22.50
2022-08-10T22:19:53.748Z,22.60
2022-08-10T22:23:03.197Z,22.60
2022-08-10T22:26:10.382Z,22.80
2022-08-10T22:29:18.317Z,22.80
2022-08-10T22:32:28.269Z,22.70
2022-08-10T22:36:03.659Z,22.40
2022-08-10T22:40:11.512Z,22.30
2022-08-10T22:42:59.359Z,22.30
2022-08-10T22:46:16.458Z,22.20
2022-08-10T22:49:05.394Z,22.30
2022-08-10T22:51:54.961Z,22.20
2022-08-10T22:55:07.113Z,21.90
2022-08-10T22:58:12.432Z,21.90
2022-08-10T23:01:03.132Z,21.80
2022-08-10T23:03:52.893Z,22.20
2022-08-10T23:06:41.352Z,21.70
2022-08-10T23:09:31.050Z,21.60
2022-08-10T23:12:24.897Z,21.50
2022-08-10T23:15:35.570Z,22.20
2022-08-10T23:18:47.528Z,21.20
2022-08-10T23:22:02.903Z,21.10
2022-08-10T23:25:06.204Z,20.90
2022-08-10T23:28:06.740Z,21.90
2022-08-10T23:31:11.259Z,20.70
2022-08-10T23:34:01.767Z,21.50
2022-08-10T23:36:52.851Z,20.30
2022-08-10T23:39:53.872Z,20.20
2022-08-10T23:42:45.863Z,20.30
2022-08-10T23:45:53.568Z,20.80
2022-08-10T23:48:48.713Z,20.30
2022-08-10T23:51:55.597Z,19.80
2022-08-10T23:54:46.704Z,20.00
2022-08-10T23:57:42.427Z,20.00
